Time;durP1;ratioP1;P1;durP2;ratioP2;P2;SDS_P1;SDS_P2;PMS_P1;PMS_P2;Temp;Humidity;BMP_temperature;BMP_pressure;BME280_temperature;BME280_humidity;BME280_pressure;Samples;Min_cycle;Max_cycle;Signal;HPM_P1;HPM_P2
2021/03/22 00:00:50;;;;;;;40.92;9.70;;;3.60;99.90;;;;;;493859;240;27390;-75
2021/03/22 00:02:51;;;;;;;25.83;8.60;;;3.60;99.90;;;;;;493870;240;27835;-74
2021/03/22 00:04:53;;;;;;;27.83;8.73;;;3.50;99.90;;;;;;493861;240;27823;-74
2021/03/22 00:06:54;;;;;;;28.58;8.27;;;3.50;99.90;;;;;;493852;240;27446;-74
2021/03/22 00:08:55;;;;;;;35.35;9.10;;;3.50;99.90;;;;;;493813;240;27482;-74
2021/03/22 00:10:56;;;;;;;28.42;8.55;;;3.40;99.90;;;;;;493855;240;27384;-74
2021/03/22 00:12:58;;;;;;;27.98;7.68;;;3.40;99.90;;;;;;493899;240;27516;-74
2021/03/22 00:14:59;;;;;;;22.37;8.00;;;3.40;99.90;;;;;;493854;241;27379;-74
2021/03/22 00:17:00;;;;;;;27.48;9.70;;;3.40;99.90;;;;;;493856;240;27380;-75
2021/03/22 00:19:01;;;;;;;27.02;8.10;;;3.50;99.90;;;;;;493860;239;27448;-74
2021/03/22 00:21:03;;;;;;;27.17;7.87;;;3.50;99.90;;;;;;493863;241;27849;-74
2021/03/22 00:23:04;;;;;;;32.30;8.68;;;3.50;99.90;;;;;;493907;240;27823;-74
2021/03/22 00:25:05;;;;;;;25.73;7.62;;;3.60;99.90;;;;;;493909;239;27919;-75
2021/03/22 00:27:06;;;;;;;30.88;8.60;;;3.60;99.90;;;;;;493886;240;27372;-74
2021/03/22 00:29:08;;;;;;;28.50;8.00;;;3.60;99.90;;;;;;493866;241;27355;-74
2021/03/22 00:31:09;;;;;;;29.65;8.00;;;3.60;99.90;;;;;;493874;240;27359;-75
2021/03/22 00:33:10;;;;;;;27.10;8.25;;;3.60;99.90;;;;;;493862;240;27367;-74
2021/03/22 00:35:11;;;;;;;27.23;8.52;;;3.60;99.90;;;;;;493859;240;27552;-74
2021/03/22 00:37:13;;;;;;;22.87;6.50;;;3.60;99.90;;;;;;493850;240;27370;-75
2021/03/22 00:39:14;;;;;;;31.85;7.75;;;3.70;99.90;;;;;;493876;240;27434;-75
2021/03/22 00:41:15;;;;;;;19.58;7.00;;;3.70;99.90;;;;;;493847;239;27925;-74
2021/03/22 00:43:16;;;;;;;26.45;8.10;;;3.70;99.90;;;;;;493869;240;27818;-74
2021/03/22 00:45:18;;;;;;;26.48;8.05;;;3.80;99.90;;;;;;497822;238;27988;-75
2021/03/22 00:47:19;;;;;;;28.42;7.62;;;3.70;99.90;;;;;;490945;242;27441;-75
2021/03/22 00:49:20;;;;;;;28.48;8.88;;;3.70;99.90;;;;;;490859;241;27388;-75
2021/03/22 00:51:21;;;;;;;26.87;8.35;;;3.70;99.90;;;;;;490939;241;27389;-74
2021/03/22 00:53:23;;;;;;;34.35;7.47;;;3.70;99.90;;;;;;490993;242;27370;-75
2021/03/22 00:55:24;;;;;;;26.05;7.07;;;3.70;99.90;;;;;;491061;241;27482;-74
2021/03/22 00:57:25;;;;;;;26.85;7.32;;;3.80;99.90;;;;;;491011;241;27473;-74
2021/03/22 00:59:26;;;;;;;23.48;7.93;;;3.80;99.90;;;;;;490987;241;27400;-74
2021/03/22 01:01:28;;;;;;;34.88;8.05;;;3.80;99.90;;;;;;491023;242;27857;-73
2021/03/22 01:03:29;;;;;;;23.23;7.10;;;3.80;99.90;;;;;;491021;241;29052;-74
2021/03/22 01:05:30;;;;;;;26.15;7.32;;;3.80;99.90;;;;;;491012;241;27380;-74
2021/03/22 01:07:31;;;;;;;24.67;7.45;;;3.80;99.90;;;;;;491031;241;27446;-75
2021/03/22 01:09:33;;;;;;;24.23;6.32;;;3.80;99.90;;;;;;491034;241;27488;-75
2021/03/22 01:11:34;;;;;;;22.58;7.05;;;3.80;99.90;;;;;;491040;241;27440;-74
2021/03/22 01:13:35;;;;;;;25.77;7.45;;;3.80;99.90;;;;;;491015;241;27447;-75
2021/03/22 01:15:36;;;;;;;32.28;8.25;;;3.70;99.90;;;;;;491018;242;27385;-74
2021/03/22 01:17:38;;;;;;;26.60;7.03;;;3.80;99.90;;;;;;491015;241;27460;-74
2021/03/22 01:19:39;;;;;;;20.08;7.95;;;3.80;99.90;;;;;;491017;241;27373;-74
2021/03/22 01:21:40;;;;;;;28.08;7.25;;;3.80;99.90;;;;;;491017;241;27917;-74
2021/03/22 01:23:41;;;;;;;18.60;7.00;;;3.80;99.90;;;;;;491025;241;27911;-75
2021/03/22 01:25:43;;;;;;;22.20;9.13;;;3.80;99.90;;;;;;491022;241;27615;-74
2021/03/22 01:27:44;;;;;;;22.40;7.45;;;3.80;99.90;;;;;;491011;241;27448;-74
2021/03/22 01:29:46;;;;;;;24.25;7.12;;;3.80;99.90;;;;;;491019;241;27379;-75
2021/03/22 01:31:47;;;;;;;24.25;7.75;;;3.80;99.90;;;;;;491038;241;27385;-74
2021/03/22 01:33:51;;;;;;;27.15;7.57;;;3.80;99.90;;;;;;491064;241;27917;-74
2021/03/22 01:35:49;;;;;;;25.92;7.43;;;3.80;99.90;;;;;;490800;242;27950;-74
2021/03/22 01:37:50;;;;;;;24.10;7.37;;;3.90;99.90;;;;;;491025;241;27382;-74
2021/03/22 01:39:52;;;;;;;30.05;8.20;;;3.80;99.90;;;;;;491018;241;27400;-74
2021/03/22 01:41:53;;;;;;;29.95;8.18;;;3.90;99.90;;;;;;491006;241;27385;-74
2021/03/22 01:43:54;;;;;;;27.67;7.43;;;3.80;99.90;;;;;;491015;241;27435;-75
2021/03/22 01:45:55;;;;;;;20.90;7.25;;;3.80;99.90;;;;;;491024;241;27369;-74
2021/03/22 01:47:57;;;;;;;28.02;8.25;;;3.70;99.90;;;;;;491016;242;27389;-74
2021/03/22 01:49:58;;;;;;;26.65;8.65;;;3.60;99.90;;;;;;491033;241;27460;-75
2021/03/22 01:51:59;;;;;;;30.15;9.45;;;3.60;99.90;;;;;;491028;241;27390;-74
2021/03/22 01:54:00;;;;;;;24.85;8.88;;;3.50;99.90;;;;;;491003;241;27833;-75
2021/03/22 01:56:02;;;;;;;29.83;8.30;;;3.60;99.90;;;;;;491017;241;27845;-75
2021/03/22 01:58:03;;;;;;;27.23;8.68;;;3.60;99.90;;;;;;490999;242;27373;-74
2021/03/22 02:00:04;;;;;;;28.05;9.63;;;3.50;99.90;;;;;;491021;241;27447;-75
2021/03/22 02:02:05;;;;;;;27.58;9.65;;;3.60;99.90;;;;;;489536;241;27482;-75
2021/03/22 02:04:07;;;;;;;34.28;8.82;;;3.60;99.90;;;;;;493136;241;27383;-74
2021/03/22 02:06:08;;;;;;;28.77;8.68;;;3.60;99.90;;;;;;493124;241;27469;-74
2021/03/22 02:08:09;;;;;;;25.20;8.00;;;3.60;99.90;;;;;;493157;241;27492;-74
2021/03/22 02:10:10;;;;;;;27.48;8.38;;;3.60;99.90;;;;;;493149;241;27380;-74
2021/03/22 02:12:12;;;;;;;34.58;9.90;;;3.60;99.90;;;;;;493131;237;28084;-76
2021/03/22 02:14:13;;;;;;;29.83;9.30;;;3.70;99.90;;;;;;493116;241;27827;-74
2021/03/22 02:16:14;;;;;;;20.08;9.65;;;3.60;99.90;;;;;;493145;241;28052;-74
2021/03/22 02:18:15;;;;;;;29.37;9.95;;;3.60;99.90;;;;;;493144;241;27400;-74
2021/03/22 02:20:17;;;;;;;26.40;9.25;;;3.50;99.90;;;;;;493146;241;27384;-74
2021/03/22 02:22:18;;;;;;;24.63;9.52;;;3.60;99.90;;;;;;493148;241;27479;-75
2021/03/22 02:24:19;;;;;;;25.00;8.43;;;3.70;99.90;;;;;;493126;241;27588;-75
2021/03/22 02:26:20;;;;;;;39.28;10.43;;;3.70;99.90;;;;;;493181;241;27578;-74
2021/03/22 02:28:22;;;;;;;34.17;9.43;;;3.70;99.90;;;;;;493127;241;27589;-74
2021/03/22 02:30:23;;;;;;;28.20;9.30;;;3.60;99.90;;;;;;493154;241;27854;-75
2021/03/22 02:32:24;;;;;;;26.55;9.48;;;3.60;99.90;;;;;;493150;241;27910;-75
2021/03/22 02:34:25;;;;;;;19.77;9.02;;;3.60;99.90;;;;;;493124;241;27862;-75
2021/03/22 02:36:27;;;;;;;24.23;8.30;;;3.60;99.90;;;;;;493142;241;27486;-74
2021/03/22 02:38:28;;;;;;;23.62;8.40;;;3.50;99.90;;;;;;493149;241;27380;-75
2021/03/22 02:40:29;;;;;;;24.70;8.93;;;3.50;99.90;;;;;;493145;241;27473;-74
2021/03/22 02:42:30;;;;;;;34.78;9.45;;;3.50;99.90;;;;;;493156;241;27412;-75
2021/03/22 02:44:32;;;;;;;33.65;8.70;;;3.50;99.90;;;;;;493113;241;27379;-74
2021/03/22 02:46:33;;;;;;;23.67;8.05;;;3.50;99.90;;;;;;493127;241;27459;-74
2021/03/22 02:48:34;;;;;;;27.50;8.30;;;3.50;99.90;;;;;;493149;241;27379;-75
2021/03/22 02:50:35;;;;;;;26.77;7.47;;;3.50;99.90;;;;;;493136;241;28033;-73
2021/03/22 02:52:37;;;;;;;26.08;8.25;;;3.50;99.90;;;;;;493167;241;27950;-74
2021/03/22 02:54:38;;;;;;;31.85;8.25;;;3.40;99.90;;;;;;493164;241;28318;-74
2021/03/22 02:56:39;;;;;;;18.62;6.97;;;3.40;99.90;;;;;;493165;241;27423;-74
2021/03/22 02:58:40;;;;;;;21.77;7.18;;;3.40;99.90;;;;;;493160;241;27477;-76
2021/03/22 03:00:42;;;;;;;31.48;8.68;;;3.40;99.90;;;;;;493176;241;27476;-74
2021/03/22 03:02:43;;;;;;;27.37;7.62;;;3.30;99.90;;;;;;493200;241;27380;-74
2021/03/22 03:04:44;;;;;;;23.25;8.18;;;3.40;99.90;;;;;;493145;241;27364;-74
2021/03/22 03:06:45;;;;;;;27.10;7.70;;;3.40;99.90;;;;;;493161;241;27449;-75
2021/03/22 03:08:47;;;;;;;18.87;7.93;;;3.30;99.90;;;;;;493173;241;27578;-74
2021/03/22 03:10:48;;;;;;;19.83;7.82;;;3.30;99.90;;;;;;493165;241;27953;-74
2021/03/22 03:12:49;;;;;;;19.05;6.65;;;3.30;99.90;;;;;;493164;241;27810;-75
2021/03/22 03:14:50;;;;;;;27.40;8.02;;;3.30;99.90;;;;;;493146;241;27473;-75
2021/03/22 03:16:52;;;;;;;18.67;7.22;;;3.30;99.90;;;;;;493165;241;27361;-74
2021/03/22 03:18:53;;;;;;;18.40;6.43;;;3.30;99.90;;;;;;493171;241;27463;-75
2021/03/22 03:20:56;;;;;;;22.02;8.32;;;3.30;99.90;;;;;;493162;241;27368;-76
2021/03/22 03:22:55;;;;;;;22.50;7.75;;;3.30;99.90;;;;;;492976;241;27463;-74
2021/03/22 03:24:57;;;;;;;21.50;7.50;;;3.30;99.90;;;;;;493143;241;27603;-74
2021/03/22 03:26:58;;;;;;;20.12;7.30;;;3.40;99.90;;;;;;493154;241;27380;-74
2021/03/22 03:28:59;;;;;;;24.75;7.65;;;3.30;99.90;;;;;;493144;241;27387;-76
2021/03/22 03:31:00;;;;;;;24.63;7.70;;;3.40;99.90;;;;;;493150;241;28011;-75
2021/03/22 03:33:02;;;;;;;25.85;8.68;;;3.30;99.90;;;;;;493159;241;27998;-74
2021/03/22 03:35:03;;;;;;;25.00;7.15;;;3.30;99.90;;;;;;493136;241;27477;-74
2021/03/22 03:37:04;;;;;;;27.48;7.40;;;3.30;99.90;;;;;;493157;241;27463;-74
2021/03/22 03:39:05;;;;;;;20.08;6.85;;;3.30;99.90;;;;;;493147;241;27451;-74
2021/03/22 03:41:07;;;;;;;17.08;6.07;;;3.30;99.90;;;;;;493167;237;27393;-75
2021/03/22 03:43:08;;;;;;;22.20;6.97;;;3.30;99.90;;;;;;493167;241;27384;-74
2021/03/22 03:45:09;;;;;;;20.80;6.55;;;3.40;99.90;;;;;;493158;241;27471;-74
2021/03/22 03:47:11;;;;;;;19.37;7.05;;;3.30;99.90;;;;;;493161;241;27483;-74
2021/03/22 03:49:12;;;;;;;23.60;6.50;;;3.30;99.90;;;;;;493148;241;27458;-74
2021/03/22 03:51:13;;;;;;;19.75;7.20;;;3.40;99.90;;;;;;493139;241;27856;-74
2021/03/22 03:53:14;;;;;;;22.25;6.78;;;3.30;99.90;;;;;;493160;241;28002;-75
2021/03/22 03:55:16;;;;;;;24.95;6.28;;;3.30;99.90;;;;;;493141;241;27476;-74
2021/03/22 03:57:17;;;;;;;26.33;7.37;;;3.30;99.90;;;;;;493169;241;27517;-76
2021/03/22 03:59:18;;;;;;;23.75;6.65;;;3.30;99.90;;;;;;493148;241;27503;-74
2021/03/22 04:01:19;;;;;;;18.10;6.30;;;3.30;99.90;;;;;;493168;241;27368;-74
2021/03/22 04:03:21;;;;;;;24.25;7.32;;;3.20;99.90;;;;;;493168;241;27386;-74
2021/03/22 04:05:22;;;;;;;24.63;5.40;;;3.30;99.90;;;;;;493119;241;27396;-74
2021/03/22 04:07:23;;;;;;;22.67;5.95;;;3.30;99.90;;;;;;493172;241;27447;-74
2021/03/22 04:09:24;;;;;;;21.15;6.15;;;3.30;99.90;;;;;;493160;241;28182;-73
2021/03/22 04:11:26;;;;;;;15.38;5.20;;;3.30;99.90;;;;;;493160;241;27836;-74
2021/03/22 04:13:27;;;;;;;20.50;5.05;;;3.30;99.90;;;;;;493174;241;27800;-75
2021/03/22 04:15:28;;;;;;;14.38;5.30;;;3.30;99.90;;;;;;493165;241;27364;-74
2021/03/22 04:17:29;;;;;;;18.80;5.65;;;3.30;99.90;;;;;;493159;241;27376;-75
2021/03/22 04:19:31;;;;;;;24.02;5.32;;;3.40;99.90;;;;;;493177;237;27484;-74
2021/03/22 04:21:32;;;;;;;23.38;7.35;;;3.30;99.90;;;;;;493172;241;27380;-74
2021/03/22 04:23:33;;;;;;;21.70;6.15;;;3.30;99.90;;;;;;493153;241;27392;-74
2021/03/22 04:25:34;;;;;;;15.30;5.12;;;3.30;99.90;;;;;;493155;241;27376;-74
2021/03/22 04:27:36;;;;;;;17.90;6.95;;;3.30;99.90;;;;;;493170;241;27387;-75
2021/03/22 04:29:37;;;;;;;15.35;4.95;;;3.30;99.90;;;;;;493167;241;27855;-74
2021/03/22 04:31:38;;;;;;;12.73;5.57;;;3.30;99.90;;;;;;493142;241;27977;-75
2021/03/22 04:33:39;;;;;;;19.87;5.37;;;3.30;99.90;;;;;;493163;241;27848;-74
2021/03/22 04:35:41;;;;;;;16.35;5.32;;;3.20;99.90;;;;;;493157;241;27391;-74
2021/03/22 04:37:42;;;;;;;17.00;5.55;;;3.20;99.90;;;;;;493144;241;27502;-74
2021/03/22 04:39:43;;;;;;;16.10;4.50;;;3.20;99.90;;;;;;493147;241;27372;-74
2021/03/22 04:41:44;;;;;;;24.30;6.15;;;3.30;99.90;;;;;;493155;241;27385;-74
2021/03/22 04:43:46;;;;;;;20.65;5.10;;;3.30;99.90;;;;;;493151;241;27507;-74
2021/03/22 04:45:47;;;;;;;17.98;5.00;;;3.40;99.90;;;;;;493158;241;27456;-74
2021/03/22 04:47:48;;;;;;;19.73;5.35;;;3.30;99.90;;;;;;493145;241;27487;-74
2021/03/22 04:49:49;;;;;;;20.37;5.10;;;3.30;99.90;;;;;;493156;241;27923;-76
2021/03/22 04:51:51;;;;;;;16.42;5.32;;;3.30;99.90;;;;;;493154;241;27922;-74
2021/03/22 04:53:52;;;;;;;16.42;5.87;;;3.30;99.90;;;;;;493140;241;29026;-74
2021/03/22 04:55:53;;;;;;;20.15;5.25;;;3.20;99.90;;;;;;493194;241;27439;-74
2021/03/22 04:57:54;;;;;;;19.83;5.75;;;3.30;99.90;;;;;;493156;241;27371;-74
2021/03/22 04:59:56;;;;;;;24.23;6.55;;;3.30;99.90;;;;;;493114;241;27376;-74
2021/03/22 05:01:57;;;;;;;18.92;5.30;;;3.20;99.90;;;;;;493077;241;27491;-74
2021/03/22 05:03:58;;;;;;;12.65;5.25;;;3.20;99.90;;;;;;493075;241;27577;-74
2021/03/22 05:05:59;;;;;;;17.73;5.60;;;3.30;99.90;;;;;;493074;241;27382;-74
2021/03/22 05:08:01;;;;;;;23.10;5.60;;;3.30;99.90;;;;;;493057;241;27590;-74
2021/03/22 05:10:02;;;;;;;12.27;5.20;;;3.30;99.90;;;;;;493085;241;28050;-74
2021/03/22 05:12:03;;;;;;;23.60;6.25;;;3.30;99.90;;;;;;493129;241;28011;-74
2021/03/22 05:14:04;;;;;;;20.67;5.35;;;3.20;99.90;;;;;;493129;241;28170;-74
2021/03/22 05:16:06;;;;;;;17.20;5.70;;;3.20;99.90;;;;;;493123;241;27437;-74
2021/03/22 05:18:07;;;;;;;19.62;5.65;;;3.20;99.90;;;;;;493141;241;27502;-73
2021/03/22 05:20:08;;;;;;;23.52;6.20;;;3.20;99.90;;;;;;493145;241;27474;-74
2021/03/22 05:22:09;;;;;;;28.85;7.00;;;3.20;99.90;;;;;;493132;241;27558;-74
2021/03/22 05:24:11;;;;;;;19.65;5.70;;;3.30;99.90;;;;;;493124;241;27425;-75
2021/03/22 05:26:12;;;;;;;17.02;5.62;;;3.20;99.90;;;;;;493130;241;27455;-74
2021/03/22 05:28:13;;;;;;;23.65;6.18;;;3.20;99.90;;;;;;493124;241;27372;-75
2021/03/22 05:30:14;;;;;;;17.30;6.85;;;3.20;99.90;;;;;;493132;241;27924;-74
2021/03/22 05:32:16;;;;;;;14.25;4.95;;;3.30;99.90;;;;;;493160;241;27965;-76
2021/03/22 05:34:17;;;;;;;15.35;6.10;;;3.20;99.90;;;;;;493159;241;27972;-73
2021/03/22 05:36:18;;;;;;;22.95;6.55;;;3.20;99.90;;;;;;493144;241;27368;-75
2021/03/22 05:38:19;;;;;;;22.73;6.78;;;3.20;99.90;;;;;;493138;241;27376;-74
2021/03/22 05:40:21;;;;;;;16.42;6.72;;;3.20;99.90;;;;;;493146;241;27363;-74
2021/03/22 05:42:22;;;;;;;18.17;6.12;;;3.20;99.90;;;;;;493163;241;27503;-76
2021/03/22 05:44:23;;;;;;;17.35;6.15;;;3.20;99.90;;;;;;493167;241;27364;-74
2021/03/22 05:46:24;;;;;;;17.65;8.10;;;3.20;99.90;;;;;;493165;241;27387;-74
2021/03/22 05:48:26;;;;;;;15.40;6.72;;;3.20;99.90;;;;;;493198;241;27384;-74
2021/03/22 05:50:27;;;;;;;25.30;6.30;;;3.30;99.90;;;;;;493173;241;27940;-74
2021/03/22 05:52:28;;;;;;;20.65;6.22;;;3.30;99.90;;;;;;493178;241;29054;-74
2021/03/22 05:54:29;;;;;;;26.35;6.65;;;3.30;99.90;;;;;;493157;241;27372;-74
2021/03/22 05:56:31;;;;;;;16.65;5.90;;;3.30;99.90;;;;;;493147;241;27372;-74
2021/03/22 05:58:32;;;;;;;20.02;6.25;;;3.30;99.90;;;;;;493169;241;27448;-74
2021/03/22 06:00:33;;;;;;;21.85;6.78;;;3.30;99.90;;;;;;493146;241;27372;-74
2021/03/22 06:02:34;;;;;;;20.50;6.07;;;3.30;99.90;;;;;;493157;241;27551;-74
2021/03/22 06:04:36;;;;;;;23.55;6.10;;;3.30;99.90;;;;;;493154;241;27493;-74
2021/03/22 06:06:37;;;;;;;25.45;6.97;;;3.30;99.90;;;;;;493133;241;27384;-74
2021/03/22 06:08:38;;;;;;;18.73;6.10;;;3.40;99.90;;;;;;493136;241;27379;-75
2021/03/22 06:10:40;;;;;;;14.00;5.97;;;3.30;99.90;;;;;;493142;241;27942;-74
2021/03/22 06:12:41;;;;;;;17.48;5.90;;;3.40;99.90;;;;;;493153;241;27827;-75
2021/03/22 06:14:42;;;;;;;23.42;7.40;;;3.40;99.90;;;;;;493148;241;27623;-74
2021/03/22 06:16:43;;;;;;;18.25;7.10;;;3.40;99.90;;;;;;493114;241;27516;-74
2021/03/22 06:18:45;;;;;;;23.58;7.47;;;3.40;99.90;;;;;;493142;241;27495;-74
2021/03/22 06:20:46;;;;;;;18.77;6.55;;;3.30;99.90;;;;;;493135;241;27377;-74
2021/03/22 06:22:47;;;;;;;19.23;6.87;;;3.40;99.90;;;;;;493141;241;27491;-74
2021/03/22 06:24:48;;;;;;;18.40;6.97;;;3.40;99.90;;;;;;493161;241;27386;-76
2021/03/22 06:26:50;;;;;;;23.52;6.65;;;3.40;99.90;;;;;;493150;241;27500;-76
2021/03/22 06:28:51;;;;;;;16.40;5.93;;;3.40;99.90;;;;;;489079;240;27574;-75
2021/03/22 06:30:52;;;;;;;23.48;7.00;;;3.50;99.90;;;;;;485761;240;27896;-76
2021/03/22 06:32:53;;;;;;;17.02;6.10;;;3.50;99.90;;;;;;478316;248;29071;-75
2021/03/22 06:34:55;;;;;;;21.23;6.22;;;3.40;99.90;;;;;;478347;248;27532;-76
2021/03/22 06:36:56;;;;;;;23.12;7.97;;;3.50;99.90;;;;;;478351;248;27624;-75
2021/03/22 06:38:57;;;;;;;20.90;7.40;;;3.50;99.90;;;;;;478351;248;27544;-76
2021/03/22 06:40:58;;;;;;;23.48;6.40;;;3.50;99.90;;;;;;478332;248;27549;-77
2021/03/22 06:43:00;;;;;;;21.77;7.90;;;3.50;99.90;;;;;;478346;248;27645;-75
2021/03/22 06:45:01;;;;;;;20.10;6.75;;;3.50;99.90;;;;;;478341;248;27528;-76
2021/03/22 06:47:02;;;;;;;24.00;7.37;;;3.50;99.90;;;;;;478515;248;27524;-76
2021/03/22 06:49:03;;;;;;;22.85;6.30;;;3.60;99.90;;;;;;478532;248;28009;-75
2021/03/22 06:51:05;;;;;;;15.98;7.22;;;3.70;99.90;;;;;;478504;248;28095;-76
2021/03/22 06:53:06;;;;;;;21.27;6.85;;;3.70;99.90;;;;;;478549;248;27994;-75
2021/03/22 06:55:07;;;;;;;21.33;7.32;;;3.70;99.90;;;;;;478526;248;27543;-76
2021/03/22 06:57:08;;;;;;;20.80;6.62;;;3.60;99.90;;;;;;478532;248;27527;-76
2021/03/22 06:59:10;;;;;;;24.95;7.45;;;3.70;99.90;;;;;;478545;248;27503;-75
2021/03/22 07:01:11;;;;;;;15.35;7.05;;;3.60;99.90;;;;;;478552;248;27520;-76
2021/03/22 07:03:12;;;;;;;14.63;6.53;;;3.60;99.90;;;;;;478573;248;27577;-75
2021/03/22 07:05:13;;;;;;;16.92;6.87;;;3.60;99.90;;;;;;478572;248;27528;-74
2021/03/22 07:07:15;;;;;;;26.98;7.10;;;3.70;99.90;;;;;;478539;248;27511;-76
2021/03/22 07:09:16;;;;;;;19.33;6.35;;;3.70;99.90;;;;;;478559;248;28025;-76
2021/03/22 07:11:17;;;;;;;20.35;6.82;;;3.70;99.90;;;;;;478542;248;28043;-76
2021/03/22 07:13:19;;;;;;;24.40;6.70;;;3.70;99.90;;;;;;478524;248;29053;-76
2021/03/22 07:15:20;;;;;;;27.20;8.15;;;3.80;99.90;;;;;;478537;248;27500;-75
2021/03/22 07:17:24;;;;;;;23.02;7.32;;;3.90;99.90;;;;;;478527;248;27514;-75
2021/03/22 07:19:25;;;;;;;24.83;7.22;;;3.90;99.90;;;;;;478514;248;28348;-76
2021/03/22 07:21:26;;;;;;;17.00;6.57;;;4.00;99.90;;;;;;478530;248;28050;-75
2021/03/22 07:23:28;;;;;;;25.50;7.37;;;3.90;99.90;;;;;;478517;248;27995;-76
2021/03/22 07:25:29;;;;;;;16.65;7.82;;;4.00;99.90;;;;;;478510;245;27592;-76
2021/03/22 07:27:30;;;;;;;22.85;7.75;;;3.80;99.90;;;;;;478536;248;27616;-76
2021/03/22 07:29:31;;;;;;;19.08;8.15;;;3.70;99.90;;;;;;481823;243;27432;-76
2021/03/22 07:31:33;;;;;;;18.30;8.10;;;3.80;99.90;;;;;;488562;243;27305;-75
2021/03/22 07:33:34;;;;;;;15.45;6.05;;;3.90;99.90;;;;;;487889;243;27327;-76
2021/03/22 07:35:35;;;;;;;21.55;6.57;;;4.00;99.90;;;;;;487345;243;27402;-75
2021/03/22 07:37:36;;;;;;;12.73;7.10;;;4.10;99.90;;;;;;479693;245;27486;-75
2021/03/22 07:39:38;;;;;;;19.75;6.90;;;4.10;99.90;;;;;;494561;240;27876;-75
2021/03/22 07:41:39;;;;;;;20.52;7.07;;;4.10;99.90;;;;;;496347;239;28210;-76
2021/03/22 07:43:40;;;;;;;20.10;7.10;;;4.20;99.90;;;;;;492407;240;27569;-77
2021/03/22 07:45:41;;;;;;;17.55;7.00;;;4.20;99.90;;;;;;484880;245;27582;-76
2021/03/22 07:47:44;;;;;;;25.80;6.72;;;4.20;99.90;;;;;;484855;244;27488;-76
2021/03/22 07:49:44;;;;;;;16.30;6.40;;;4.20;99.90;;;;;;484834;245;27384;-74
2021/03/22 07:51:45;;;;;;;18.15;6.35;;;4.30;99.90;;;;;;484913;244;27452;-77
2021/03/22 07:53:46;;;;;;;17.65;6.47;;;4.30;99.90;;;;;;484900;244;27953;-75
2021/03/22 07:55:48;;;;;;;16.37;6.28;;;4.20;99.90;;;;;;484874;244;27903;-76
2021/03/22 07:57:49;;;;;;;20.02;6.60;;;4.20;99.90;;;;;;484854;244;27846;-76
2021/03/22 07:59:50;;;;;;;17.90;6.47;;;4.30;99.90;;;;;;484892;241;27451;-76
2021/03/22 08:01:52;;;;;;;17.42;6.20;;;4.40;99.90;;;;;;484894;241;27495;-76
2021/03/22 08:03:53;;;;;;;16.98;6.30;;;4.60;99.90;;;;;;484872;244;27455;-75
2021/03/22 08:05:54;;;;;;;15.50;6.00;;;4.50;99.90;;;;;;484880;241;27515;-76
2021/03/22 08:07:55;;;;;;;16.92;6.07;;;4.30;99.90;;;;;;484883;241;27394;-76
2021/03/22 08:09:56;;;;;;;18.35;6.10;;;4.40;99.90;;;;;;484887;244;27951;-75
2021/03/22 08:11:58;;;;;;;16.02;5.82;;;4.60;99.90;;;;;;484925;245;27861;-75
2021/03/22 08:13:59;;;;;;;11.10;5.28;;;4.50;99.90;;;;;;484913;244;27391;-76
2021/03/22 08:16:00;;;;;;;18.20;6.18;;;4.40;99.90;;;;;;484880;244;27507;-76
2021/03/22 08:18:01;;;;;;;11.27;6.00;;;4.50;99.90;;;;;;484878;244;27476;-76
2021/03/22 08:20:03;;;;;;;15.15;5.37;;;4.50;99.90;;;;;;484895;244;27470;-76
2021/03/22 08:22:06;;;;;;;13.75;6.47;;;4.60;99.90;;;;;;484933;244;27392;-76
2021/03/22 08:24:05;;;;;;;13.52;5.70;;;4.60;99.90;;;;;;484809;245;27862;-75
2021/03/22 08:26:07;;;;;;;18.15;6.47;;;4.70;99.90;;;;;;484900;245;27878;-76
2021/03/22 08:28:08;;;;;;;14.18;5.35;;;4.70;99.90;;;;;;484908;244;27510;-77
2021/03/22 08:30:09;;;;;;;12.27;5.15;;;4.70;99.90;;;;;;492803;241;27477;-76
2021/03/22 08:32:10;;;;;;;15.07;5.85;;;4.70;99.90;;;;;;493708;241;27930;-76
2021/03/22 08:34:12;;;;;;;12.55;5.85;;;4.70;99.90;;;;;;493765;241;29543;-76
2021/03/22 08:36:13;;;;;;;17.87;6.15;;;4.60;99.90;;;;;;493771;241;27441;-74
2021/03/22 08:38:14;;;;;;;10.65;5.60;;;4.40;99.90;;;;;;493754;241;27541;-76
2021/03/22 08:40:15;;;;;;;13.55;5.50;;;4.40;99.90;;;;;;493787;241;27370;-75
2021/03/22 08:42:17;;;;;;;16.50;5.70;;;4.50;99.90;;;;;;485190;244;27453;-75
2021/03/22 08:44:18;;;;;;;10.50;5.35;;;4.60;99.90;;;;;;485166;245;27398;-76
2021/03/22 08:46:19;;;;;;;13.43;7.12;;;4.60;99.90;;;;;;485114;245;27833;-75
2021/03/22 08:48:21;;;;;;;10.07;5.43;;;4.40;99.90;;;;;;485183;245;27847;-75
2021/03/22 08:50:22;;;;;;;19.70;5.90;;;4.40;99.90;;;;;;485110;245;27449;-76
2021/03/22 08:52:23;;;;;;;12.88;5.87;;;4.20;99.90;;;;;;485153;245;27820;-75
2021/03/22 08:54:24;;;;;;;13.48;6.55;;;4.30;99.90;;;;;;485142;245;28181;-77
2021/03/22 08:56:25;;;;;;;12.85;6.03;;;4.30;99.90;;;;;;485156;244;27362;-76
2021/03/22 08:58:27;;;;;;;20.23;6.68;;;4.30;99.90;;;;;;485099;245;27369;-77
2021/03/22 09:00:28;;;;;;;14.30;6.25;;;4.30;99.90;;;;;;480178;247;27458;-76
2021/03/22 09:02:29;;;;;;;15.48;6.62;;;4.30;99.90;;;;;;491349;239;27530;-76
2021/03/22 09:04:31;;;;;;;13.13;7.05;;;4.30;99.90;;;;;;489247;239;27482;-76
2021/03/22 09:06:32;;;;;;;13.80;6.80;;;4.40;99.90;;;;;;484172;244;27489;-76
2021/03/22 09:08:33;;;;;;;16.10;6.60;;;4.50;99.90;;;;;;484096;245;27568;-76
2021/03/22 09:10:36;;;;;;;11.05;5.53;;;4.70;99.90;;;;;;484157;245;27487;-77
2021/03/22 09:12:36;;;;;;;14.65;6.25;;;4.70;99.90;;;;;;484075;245;27942;-76
2021/03/22 09:14:38;;;;;;;15.50;5.78;;;5.00;99.90;;;;;;484141;245;27943;-76
2021/03/22 09:16:38;;;;;;;14.65;6.47;;;5.10;99.90;;;;;;485656;237;27495;-75
2021/03/22 09:18:40;;;;;;;15.32;5.60;;;5.30;99.90;;;;;;491114;239;27930;-77
2021/03/22 09:20:41;;;;;;;11.65;5.18;;;5.30;99.90;;;;;;491235;241;28009;-75
2021/03/22 09:22:42;;;;;;;14.07;4.82;;;5.30;99.90;;;;;;491433;241;27954;-75
2021/03/22 09:24:43;;;;;;;10.82;4.97;;;5.20;99.90;;;;;;491416;241;28009;-76
2021/03/22 09:26:45;;;;;;;14.57;6.00;;;5.30;99.90;;;;;;491382;241;27586;-76
2021/03/22 09:28:46;;;;;;;9.35;5.70;;;5.30;99.90;;;;;;491397;241;27575;-75
2021/03/22 09:30:47;;;;;;;12.73;5.87;;;5.30;99.90;;;;;;491427;241;27466;-76
2021/03/22 09:32:48;;;;;;;11.77;5.20;;;5.50;99.90;;;;;;491371;241;28844;-75
2021/03/22 09:34:50;;;;;;;14.07;5.75;;;5.40;99.90;;;;;;491404;241;28317;-75
2021/03/22 09:36:51;;;;;;;14.10;4.85;;;5.30;99.90;;;;;;491395;241;27865;-76
2021/03/22 09:38:52;;;;;;;16.08;6.05;;;5.20;99.90;;;;;;491370;241;27480;-77
2021/03/22 09:40:53;;;;;;;10.18;5.35;;;5.20;99.90;;;;;;491399;241;27488;-76
2021/03/22 09:42:55;;;;;;;14.13;5.40;;;5.30;99.90;;;;;;491439;241;27391;-75
2021/03/22 09:44:56;;;;;;;12.65;5.97;;;5.30;99.90;;;;;;491364;241;27400;-75
2021/03/22 09:46:57;;;;;;;11.65;6.07;;;5.40;99.90;;;;;;491368;241;28041;-76
2021/03/22 09:48:59;;;;;;;13.43;5.20;;;5.30;99.90;;;;;;491388;241;27952;-75
2021/03/22 09:51:00;;;;;;;15.02;6.00;;;5.10;99.90;;;;;;491395;241;27498;-75
2021/03/22 09:53:01;;;;;;;11.50;4.40;;;5.20;99.90;;;;;;491441;241;27598;-76
2021/03/22 09:55:02;;;;;;;9.75;4.85;;;5.10;99.90;;;;;;491382;239;27594;-75
2021/03/22 09:57:04;;;;;;;14.45;5.47;;;5.20;99.90;;;;;;491380;241;27496;-76
2021/03/22 09:59:05;;;;;;;10.73;4.90;;;5.20;99.90;;;;;;491421;241;27380;-76
2021/03/22 10:01:06;;;;;;;7.20;4.90;;;5.20;99.90;;;;;;491401;241;27494;-76
2021/03/22 10:03:07;;;;;;;12.37;5.03;;;5.20;99.90;;;;;;491387;239;27930;-76
2021/03/22 10:05:09;;;;;;;9.02;5.12;;;5.30;99.90;;;;;;491403;241;28433;-76
2021/03/22 10:07:10;;;;;;;6.25;4.25;;;5.30;99.90;;;;;;491410;241;27380;-75
2021/03/22 10:09:11;;;;;;;9.32;4.60;;;5.20;99.90;;;;;;491389;241;27470;-74
2021/03/22 10:11:12;;;;;;;16.65;5.00;;;5.20;99.90;;;;;;491404;241;27488;-75
2021/03/22 10:13:14;;;;;;;8.27;4.68;;;5.20;99.90;;;;;;491418;241;28042;-76
2021/03/22 10:15:15;;;;;;;8.52;4.80;;;5.20;99.90;;;;;;491398;241;27569;-75
2021/03/22 10:17:16;;;;;;;12.82;4.85;;;5.30;99.90;;;;;;491373;241;27868;-76
2021/03/22 10:19:18;;;;;;;7.70;4.65;;;5.20;99.90;;;;;;491383;241;29417;-75
2021/03/22 10:21:19;;;;;;;9.60;4.95;;;5.10;99.90;;;;;;491373;237;27475;-74
2021/03/22 10:23:20;;;;;;;10.90;4.15;;;5.20;99.90;;;;;;491386;242;27514;-75
2021/03/22 10:25:21;;;;;;;9.95;4.40;;;5.20;99.90;;;;;;491398;241;27476;-76
2021/03/22 10:27:23;;;;;;;12.40;4.45;;;5.20;99.90;;;;;;491405;241;27932;-76
2021/03/22 10:29:24;;;;;;;8.38;4.80;;;5.30;99.90;;;;;;491358;241;27495;-76
2021/03/22 10:31:25;;;;;;;8.20;5.22;;;5.20;99.90;;;;;;491402;241;28291;-75